createdAt,value
2023-05-05T00:02:03.911Z,100911.52
2023-05-05T00:07:06.646Z,100924.94
2023-05-05T00:12:09.288Z,100922.54
2023-05-05T00:17:12.028Z,100920.85
2023-05-05T00:22:14.966Z,100921.72
2023-05-05T00:27:17.480Z,100916.85
2023-05-05T00:32:19.969Z,100913.36
2023-05-05T00:37:22.542Z,100914.77
2023-05-05T00:42:26.646Z,100917.38
2023-05-05T00:47:29.370Z,100912.92
2023-05-05T00:52:32.035Z,100912.96
2023-05-05T00:57:35.781Z,100905.06
2023-05-05T01:02:39.270Z,100898.33
2023-05-05T01:07:46.921Z,100896.77
2023-05-05T01:13:11.725Z,100900.70
2023-05-05T01:18:35.981Z,100903.98
2023-05-05T01:24:11.529Z,100900.48
2023-05-05T01:29:46.530Z,100898.84
2023-05-05T01:35:21.290Z,100904.58
2023-05-05T01:40:27.871Z,100902.00
2023-05-05T01:45:35.792Z,100897.59
2023-05-05T01:50:41.761Z,100898.55
2023-05-05T01:55:46.768Z,100897.85
2023-05-05T02:00:51.719Z,100895.66
2023-05-05T02:05:58.126Z,100895.94
2023-05-05T02:11:01.343Z,100889.48
2023-05-05T02:16:06.119Z,100886.67
2023-05-05T02:21:09.054Z,100888.77
2023-05-05T02:26:14.612Z,100897.15
2023-05-05T02:31:20.695Z,100902.58
2023-05-05T02:36:28.481Z,100903.98
2023-05-05T02:41:33.216Z,100906.86
2023-05-05T02:46:37.862Z,100907.31
2023-05-05T02:51:40.677Z,100908.55
2023-05-05T02:56:48.756Z,100907.48
2023-05-05T03:01:54.071Z,100913.41
2023-05-05T03:06:59.305Z,100914.66
2023-05-05T03:12:05.564Z,100909.92
2023-05-05T03:17:11.934Z,100915.59
2023-05-05T03:22:14.771Z,100923.80
2023-05-05T03:27:17.565Z,100931.04
2023-05-05T03:32:20.411Z,100933.98
2023-05-05T03:37:22.894Z,100936.80
2023-05-05T03:42:25.425Z,100941.14
2023-05-05T03:47:27.954Z,100942.41
2023-05-05T03:52:31.094Z,100946.66
2023-05-05T03:57:34.327Z,100946.14
2023-05-05T04:02:36.938Z,100944.95
2023-05-05T04:07:39.638Z,100950.70
2023-05-05T04:12:42.320Z,100953.45
2023-05-05T04:17:45.106Z,100957.86
2023-05-05T04:22:48.123Z,100965.56
2023-05-05T04:27:50.990Z,100966.45
2023-05-05T04:32:53.712Z,100971.41
2023-05-05T04:37:56.381Z,100973.70
2023-05-05T04:42:58.945Z,100977.08
2023-05-05T04:48:01.938Z,100981.50
2023-05-05T04:53:04.502Z,100983.48
2023-05-05T04:58:07.082Z,100990.55
2023-05-05T05:03:10.701Z,100995.09
2023-05-05T05:08:16.011Z,101000.05
2023-05-05T05:13:18.693Z,101012.06
2023-05-05T05:18:21.357Z,101016.16
2023-05-05T05:23:23.952Z,101017.48
2023-05-05T05:28:26.682Z,101019.19
2023-05-05T05:33:29.234Z,101028.27
2023-05-05T05:38:31.797Z,101033.85
2023-05-05T05:43:34.379Z,101035.77
2023-05-05T05:48:36.991Z,101033.05
2023-05-05T05:53:39.612Z,101037.84
2023-05-05T05:58:42.457Z,101041.79
2023-05-05T06:03:45.541Z,101039.89
2023-05-05T06:08:48.298Z,101037.64
2023-05-05T06:13:50.971Z,101041.37
2023-05-05T06:18:53.644Z,101047.92
2023-05-05T06:23:56.214Z,101061.75
2023-05-05T06:28:58.750Z,101062.69
2023-05-05T06:34:01.274Z,101065.11
2023-05-05T06:39:04.081Z,101068.08
2023-05-05T06:44:06.679Z,101071.79
2023-05-05T06:49:09.619Z,101071.33
2023-05-05T06:54:12.137Z,101076.15
2023-05-05T06:59:15.621Z,101081.09
2023-05-05T07:04:18.562Z,101078.96
2023-05-05T07:09:21.527Z,101078.81
2023-05-05T07:14:24.571Z,101077.77
2023-05-05T07:19:27.472Z,101079.59
2023-05-05T07:24:30.073Z,101081.80
2023-05-05T07:29:32.647Z,101082.03
2023-05-05T07:34:37.804Z,101086.60
2023-05-05T07:39:40.520Z,101086.90
2023-05-05T07:44:43.092Z,101088.03
2023-05-05T07:49:45.685Z,101089.09
2023-05-05T07:54:48.604Z,101089.73
2023-05-05T07:59:51.196Z,101090.39
2023-05-05T08:04:53.701Z,101090.62
2023-05-05T08:09:57.630Z,101099.22
2023-05-05T08:15:00.667Z,101096.30
2023-05-05T08:20:03.364Z,101098.06
2023-05-05T08:25:07.142Z,101096.64
2023-05-05T08:30:10.795Z,101094.34
2023-05-05T08:35:13.645Z,101091.87
2023-05-05T08:40:17.025Z,101093.36
2023-05-05T08:45:19.691Z,101097.02
2023-05-05T08:50:26.332Z,101101.80
2023-05-05T09:20:07.691Z,101103.11
2023-05-05T09:25:12.918Z,101109.91
2023-05-05T09:30:18.057Z,101108.85
2023-05-05T09:35:22.310Z,101117.53
2023-05-05T09:40:25.050Z,101114.97
2023-05-05T09:45:28.117Z,101112.28
2023-05-05T09:50:41.836Z,101110.85
2023-05-05T09:56:00.841Z,101105.27
2023-05-05T10:01:03.474Z,101107.93
2023-05-05T10:06:07.705Z,101111.05
2023-05-05T10:11:11.179Z,101111.86
2023-05-05T10:16:14.479Z,101109.17
2023-05-05T10:21:21.319Z,101110.92
2023-05-05T10:26:27.550Z,101108.60
2023-05-05T10:31:46.283Z,101109.86
2023-05-05T10:36:49.612Z,101113.05
2023-05-05T10:41:52.846Z,101105.00
2023-05-05T10:46:55.968Z,101101.14
2023-05-05T10:52:13.861Z,101101.77
2023-05-05T10:57:22.304Z,101100.92
2023-05-05T11:02:29.915Z,101099.67
2023-05-05T11:07:34.294Z,101098.16
2023-05-05T11:12:57.678Z,101093.27
2023-05-05T11:18:07.495Z,101084.52
2023-05-05T11:23:10.956Z,101086.14
2023-05-05T11:28:19.096Z,101083.95
2023-05-05T11:33:31.867Z,101075.95
2023-05-05T11:38:56.360Z,101070.37
2023-05-05T11:44:16.876Z,101063.92
2023-05-05T11:49:37.115Z,101064.45
2023-05-05T11:54:47.564Z,101069.79
2023-05-05T11:59:55.921Z,101070.38
2023-05-05T12:04:59.820Z,101067.14
2023-05-05T12:10:02.631Z,101062.44
2023-05-05T12:15:06.484Z,101066.73
2023-05-05T12:20:10.453Z,101065.42
2023-05-05T12:25:13.367Z,101062.25
2023-05-05T12:30:17.907Z,101062.13
2023-05-05T12:35:21.831Z,101062.35
2023-05-05T12:40:47.558Z,101054.63
2023-05-05T12:46:12.092Z,101054.39
2023-05-05T12:51:20.418Z,101055.11
2023-05-05T12:56:41.048Z,101055.35
2023-05-05T13:01:53.701Z,101054.91
2023-05-05T13:07:14.410Z,101050.20
2023-05-05T13:12:20.757Z,101051.45
2023-05-05T13:17:24.090Z,101044.93
2023-05-05T13:22:26.632Z,101040.35
2023-05-05T13:27:29.455Z,101036.12
2023-05-05T13:32:32.715Z,101028.23
2023-05-05T13:37:35.715Z,101026.18
2023-05-05T13:42:38.229Z,101025.76
2023-05-05T13:47:41.862Z,101028.69
2023-05-05T13:52:44.846Z,101021.51
2023-05-05T13:57:47.384Z,101015.58
2023-05-05T14:02:49.964Z,101020.47
2023-05-05T14:07:54.135Z,101015.17
2023-05-05T14:12:57.496Z,101009.03
2023-05-05T14:18:00.239Z,101005.99
2023-05-05T14:23:02.891Z,101008.71
2023-05-05T14:28:05.609Z,101003.61
2023-05-05T14:33:08.445Z,101000.54
2023-05-05T14:38:11.267Z,101002.91
2023-05-05T14:43:13.886Z,101005.42
2023-05-05T14:48:16.575Z,101008.36
2023-05-05T14:53:19.292Z,101009.66
2023-05-05T14:58:24.431Z,101012.36
2023-05-05T15:03:27.130Z,101010.09
2023-05-05T15:08:29.748Z,101009.70
2023-05-05T15:13:32.263Z,101006.05
2023-05-05T15:18:34.840Z,101008.14
2023-05-05T15:23:37.372Z,101009.33
2023-05-05T15:28:40.261Z,101010.69
2023-05-05T15:33:44.684Z,101005.27
2023-05-05T15:38:47.220Z,101001.84
2023-05-05T15:43:49.702Z,101008.54
2023-05-05T15:48:52.195Z,101011.86
2023-05-05T15:53:54.768Z,101007.11
2023-05-05T15:58:57.316Z,101003.40
2023-05-05T16:04:01.242Z,101000.11
2023-05-05T16:09:04.250Z,100999.20
2023-05-05T16:14:06.840Z,100995.33
2023-05-05T16:19:09.422Z,100988.94
2023-05-05T16:24:16.437Z,100981.23
2023-05-05T16:29:19.435Z,100978.09
2023-05-05T16:34:22.263Z,100979.42
2023-05-05T16:39:26.095Z,100985.08
2023-05-05T16:44:28.674Z,100978.39
2023-05-05T16:49:31.325Z,100980.92
2023-05-05T16:54:34.062Z,100984.38
2023-05-05T16:59:36.718Z,100993.45
2023-05-05T17:04:39.389Z,100996.48
2023-05-05T17:09:41.970Z,100997.95
2023-05-05T17:14:45.953Z,100993.61
2023-05-05T17:19:48.503Z,100995.32
2023-05-05T17:24:51.003Z,100996.29
2023-05-05T17:29:54.552Z,101001.23
2023-05-05T17:34:57.734Z,101009.52
2023-05-05T17:40:00.376Z,101006.96
2023-05-05T17:45:03.284Z,101010.76
2023-05-05T17:50:06.483Z,101014.40
2023-05-05T17:55:09.770Z,101018.43
2023-05-05T18:00:13.756Z,101024.79
2023-05-05T18:05:16.496Z,101025.86
2023-05-05T18:10:19.664Z,101028.80
2023-05-05T18:15:22.423Z,101032.46
2023-05-05T18:20:25.109Z,101037.48
2023-05-05T18:25:27.753Z,101043.60
2023-05-05T18:30:30.380Z,101046.89
2023-05-05T18:35:34.748Z,101049.59
2023-05-05T18:40:37.414Z,101051.81
2023-05-05T18:45:40.114Z,101059.52
2023-05-05T18:50:42.956Z,101065.99
2023-05-05T18:55:47.075Z,101067.40
2023-05-05T19:00:50.814Z,101073.65
2023-05-05T19:05:55.767Z,101076.00
2023-05-05T19:10:58.374Z,101075.48
2023-05-05T19:16:01.341Z,101076.86
2023-05-05T19:21:03.982Z,101074.61
2023-05-05T19:26:06.946Z,101073.54
2023-05-05T19:31:09.518Z,101068.98
2023-05-05T19:36:12.637Z,101069.58
2023-05-05T19:41:15.340Z,101070.73
2023-05-05T19:46:19.230Z,101073.09
2023-05-05T19:51:21.955Z,101076.57
2023-05-05T19:56:24.593Z,101077.15
2023-05-05T20:01:28.954Z,101084.20
2023-05-05T20:06:32.601Z,101085.02
2023-05-05T20:11:35.694Z,101083.84
2023-05-05T20:16:39.053Z,101083.40
2023-05-05T20:21:41.813Z,101084.52
2023-05-05T20:26:45.440Z,101087.59
2023-05-05T20:31:48.665Z,101088.92
2023-05-05T20:36:52.560Z,101085.73
2023-05-05T20:41:55.154Z,101090.27
2023-05-05T20:46:57.790Z,101091.77
2023-05-05T20:52:00.513Z,101092.10
2023-05-05T20:57:03.521Z,101091.70
2023-05-05T21:02:06.366Z,101093.29
2023-05-05T21:07:08.979Z,101090.20
2023-05-05T21:12:11.517Z,101089.42
2023-05-05T21:17:14.138Z,101093.48
2023-05-05T21:22:16.730Z,101094.10
2023-05-05T21:27:21.007Z,101092.93
2023-05-05T21:32:23.747Z,101087.50
2023-05-05T21:37:29.049Z,101086.29
2023-05-05T21:42:32.018Z,101087.29
2023-05-05T21:47:34.660Z,101091.79
2023-05-05T21:52:37.316Z,101093.14
2023-05-05T21:57:39.861Z,101094.40
2023-05-05T22:02:45.604Z,101093.70
2023-05-05T22:07:48.226Z,101092.08
2023-05-05T22:12:51.006Z,101092.76
2023-05-05T22:17:53.727Z,101093.45
2023-05-05T22:22:56.567Z,101091.45
2023-05-05T22:28:00.496Z,101089.89
2023-05-05T22:33:03.632Z,101088.09
2023-05-05T22:38:06.996Z,101087.86
2023-05-05T22:43:09.564Z,101086.02
2023-05-05T22:48:12.112Z,101086.45
2023-05-05T22:53:14.642Z,101081.41
2023-05-05T22:58:17.164Z,101082.73
2023-05-05T23:03:19.726Z,101085.65
2023-05-05T23:08:24.005Z,101088.96
2023-05-05T23:13:26.574Z,101085.21
2023-05-05T23:18:29.105Z,101081.95
2023-05-05T23:23:33.820Z,101079.58
2023-05-05T23:28:36.407Z,101078.27
2023-05-05T23:33:38.948Z,101077.71
2023-05-05T23:38:41.878Z,101070.44
2023-05-05T23:43:44.701Z,101069.67
2023-05-05T23:48:47.250Z,101067.89
2023-05-05T23:53:49.787Z,101064.82
2023-05-05T23:58:53.020Z,101063.14
